Time;durP1;ratioP1;P1;durP2;ratioP2;P2;SDS_P1;SDS_P2;PMS_P1;PMS_P2;Temp;Humidity;BMP_temperature;BMP_pressure;BME280_temperature;BME280_humidity;BME280_pressure;Samples;Min_cycle;Max_cycle;Signal;HPM_P1;HPM_P2
2022/08/16 00:02:20;;;;;;;0.30;0.30;;;20.70;99.90;;;;;;5037872;28;20783;-79
2022/08/16 00:04:46;;;;;;;0.30;0.30;;;20.80;99.90;;;;;;5031321;28;20209;-79
2022/08/16 00:07:11;;;;;;;0.20;0.20;;;20.90;99.90;;;;;;5033658;28;20228;-79
2022/08/16 00:09:37;;;;;;;1.27;0.30;;;20.90;99.90;;;;;;5032992;28;20704;-79
2022/08/16 00:12:03;;;;;;;0.40;0.40;;;21.00;99.90;;;;;;5032451;28;20186;-79
2022/08/16 00:14:31;;;;;;;0.83;0.63;;;20.90;99.90;;;;;;5025432;28;20238;-79
2022/08/16 00:16:58;;;;;;;0.70;0.60;;;21.00;99.90;;;;;;5028322;28;20175;-79
2022/08/16 00:19:31;;;;;;;0.40;0.40;;;21.00;99.90;;;;;;5033525;28;20173;-79
2022/08/16 00:21:58;;;;;;;0.30;0.30;;;20.90;99.90;;;;;;5035583;28;20174;-79
2022/08/16 00:24:26;;;;;;;0.43;0.43;;;20.90;99.90;;;;;;5028126;28;20174;-79
2022/08/16 00:26:52;;;;;;;0.80;0.80;;;20.90;99.90;;;;;;5028668;28;20674;-79
2022/08/16 00:29:17;;;;;;;0.33;0.33;;;20.90;99.90;;;;;;5026809;28;20228;-79
2022/08/16 00:31:46;;;;;;;0.67;0.40;;;20.90;99.90;;;;;;5034826;28;20178;-79
2022/08/16 00:34:12;;;;;;;0.27;0.27;;;20.90;99.90;;;;;;5024521;28;20202;-79
2022/08/16 00:36:37;;;;;;;0.70;0.70;;;20.90;99.90;;;;;;5027878;28;20300;-79
2022/08/16 00:39:03;;;;;;;0.53;0.50;;;20.80;99.90;;;;;;5029712;28;20208;-79
2022/08/16 00:41:30;;;;;;;0.50;0.50;;;20.80;99.90;;;;;;5027893;28;20362;-80
2022/08/16 00:43:58;;;;;;;0.30;0.30;;;20.70;99.90;;;;;;5032692;28;20182;-80
2022/08/16 00:46:31;;;;;;;0.50;0.50;;;20.60;99.90;;;;;;5030698;28;20210;-80
2022/08/16 00:48:57;;;;;;;0.43;0.43;;;20.60;99.90;;;;;;5030939;28;20628;-80
2022/08/16 00:51:24;;;;;;;0.40;0.40;;;20.50;99.90;;;;;;5029075;28;20285;-80
2022/08/16 00:53:52;;;;;;;0.67;0.67;;;20.40;99.90;;;;;;5046557;28;20297;-80
2022/08/16 00:56:24;;;;;;;0.60;0.60;;;20.10;99.90;;;;;;5030230;28;20201;-80
2022/08/16 00:58:50;;;;;;;0.50;0.50;;;20.00;99.90;;;;;;5028690;28;20189;-80
2022/08/16 01:01:17;;;;;;;0.97;0.50;;;19.90;99.90;;;;;;5037140;28;20177;-80
2022/08/16 01:03:47;;;;;;;1.40;0.60;;;19.80;99.90;;;;;;5032959;28;20226;-80
2022/08/16 01:06:14;;;;;;;0.80;0.53;;;19.80;99.90;;;;;;5034985;28;20754;-80
2022/08/16 01:08:43;;;;;;;0.93;0.60;;;19.80;99.90;;;;;;5029605;28;20224;-79
2022/08/16 01:11:09;;;;;;;0.40;0.40;;;20.00;99.90;;;;;;5027043;28;20561;-79
2022/08/16 01:13:37;;;;;;;0.97;0.97;;;20.10;99.90;;;;;;5040018;28;20214;-79
2022/08/16 01:16:16;;;;;;;0.50;0.50;;;20.10;99.90;;;;;;5032167;28;20244;-80
2022/08/16 01:18:55;;;;;;;0.40;0.40;;;20.10;99.90;;;;;;5025691;28;20540;-79
2022/08/16 01:21:38;;;;;;;0.93;0.93;;;20.20;99.90;;;;;;5029666;28;20778;-80
2022/08/16 01:24:31;;;;;;;0.30;0.30;;;20.20;99.90;;;;;;5031943;28;20190;-80
2022/08/16 01:27:12;;;;;;;0.40;0.40;;;20.20;99.90;;;;;;5038147;28;20178;-79
2022/08/16 01:29:44;;;;;;;0.47;0.47;;;20.30;99.90;;;;;;5030279;28;20182;-79
2022/08/16 01:32:09;;;;;;;0.40;0.37;;;20.40;99.90;;;;;;5032953;28;20563;-80
2022/08/16 01:34:35;;;;;;;0.23;0.23;;;20.40;99.90;;;;;;5029228;28;20283;-80
2022/08/16 01:37:05;;;;;;;0.30;0.30;;;20.50;99.90;;;;;;5020430;28;20281;-80
2022/08/16 01:39:32;;;;;;;0.40;0.40;;;20.50;99.90;;;;;;5029317;28;20642;-80
2022/08/16 01:41:59;;;;;;;0.57;0.43;;;20.50;99.90;;;;;;5032696;28;20224;-80
2022/08/16 01:44:24;;;;;;;0.80;0.80;;;20.40;99.90;;;;;;5036252;28;20186;-80
2022/08/16 01:46:52;;;;;;;0.50;0.50;;;20.40;99.90;;;;;;5031564;28;20694;-80
2022/08/16 01:49:32;;;;;;;0.40;0.40;;;20.30;99.90;;;;;;5029850;28;20645;-80
2022/08/16 01:52:14;;;;;;;0.57;0.57;;;20.30;99.90;;;;;;5025746;28;20239;-80
2022/08/16 01:54:40;;;;;;;0.37;0.37;;;20.30;99.90;;;;;;5033337;28;20202;-80
2022/08/16 01:57:07;;;;;;;0.50;0.43;;;20.30;99.90;;;;;;5037374;28;20595;-80
2022/08/16 01:59:34;;;;;;;0.60;0.60;;;20.20;99.90;;;;;;5029745;28;20183;-80
2022/08/16 02:01:59;;;;;;;0.43;0.43;;;19.90;99.90;;;;;;5024828;28;20533;-79
2022/08/16 02:04:26;;;;;;;1.80;1.07;;;19.80;99.90;;;;;;5026899;28;20213;-80
2022/08/16 02:06:52;;;;;;;0.40;0.40;;;19.60;99.90;;;;;;5029774;28;20238;-79
2022/08/16 02:09:20;;;;;;;1.33;0.57;;;19.40;99.90;;;;;;5029385;28;20279;-79
2022/08/16 02:11:52;;;;;;;0.37;0.37;;;19.30;99.90;;;;;;5033600;28;20182;-79
2022/08/16 02:14:19;;;;;;;0.40;0.40;;;19.20;99.90;;;;;;5043975;28;20221;-79
2022/08/16 02:16:45;;;;;;;0.50;0.50;;;19.20;99.90;;;;;;5031827;28;20206;-79
2022/08/16 02:19:11;;;;;;;0.40;0.40;;;19.20;99.90;;;;;;5038361;28;20185;-80
2022/08/16 02:21:38;;;;;;;1.20;0.80;;;19.00;99.90;;;;;;5032899;28;20186;-80
2022/08/16 02:24:04;;;;;;;0.83;0.67;;;18.90;99.90;;;;;;5036571;28;20273;-80
2022/08/16 02:26:29;;;;;;;0.40;0.37;;;18.90;99.90;;;;;;5023809;28;20345;-80
2022/08/16 02:28:55;;;;;;;0.23;0.23;;;18.90;99.90;;;;;;5028425;28;20190;-80
2022/08/16 02:31:21;;;;;;;0.93;0.67;;;19.00;99.90;;;;;;5030725;28;20183;-80
2022/08/16 02:33:46;;;;;;;0.63;0.53;;;19.00;99.90;;;;;;5029231;28;20212;-79
2022/08/16 02:36:13;;;;;;;0.97;0.77;;;19.10;99.90;;;;;;5033301;28;20678;-80
2022/08/16 02:38:39;;;;;;;0.40;0.40;;;19.20;99.90;;;;;;5033018;28;20187;-80
2022/08/16 02:41:06;;;;;;;0.50;0.50;;;19.20;99.90;;;;;;5027609;28;20184;-79
2022/08/16 02:43:33;;;;;;;0.40;0.33;;;19.30;99.90;;;;;;5034347;28;20179;-80
2022/08/16 02:46:00;;;;;;;0.53;0.53;;;19.20;99.90;;;;;;5029282;28;20692;-79
2022/08/16 02:48:27;;;;;;;0.67;0.67;;;19.00;99.90;;;;;;5031530;28;20198;-80
2022/08/16 02:50:52;;;;;;;1.07;0.57;;;18.90;99.90;;;;;;5027766;28;20178;-79
2022/08/16 02:53:18;;;;;;;0.60;0.60;;;18.70;99.90;;;;;;5031743;28;20193;-80
2022/08/16 02:55:43;;;;;;;0.40;0.40;;;18.50;99.90;;;;;;5034166;28;20695;-79
2022/08/16 02:58:10;;;;;;;1.80;0.73;;;18.40;99.90;;;;;;5040231;28;20186;-80
2022/08/16 03:00:36;;;;;;;0.20;0.20;;;18.40;99.90;;;;;;5033475;28;20194;-79
2022/08/16 03:03:02;;;;;;;0.70;0.47;;;18.50;99.90;;;;;;5029874;28;20182;-79
2022/08/16 03:05:27;;;;;;;0.50;0.50;;;18.50;99.90;;;;;;5029859;28;20206;-80
2022/08/16 03:07:53;;;;;;;0.60;0.60;;;18.70;99.90;;;;;;5035738;28;20656;-79
2022/08/16 03:10:19;;;;;;;0.73;0.73;;;18.70;99.90;;;;;;5031066;28;20179;-80
2022/08/16 03:12:45;;;;;;;0.80;0.77;;;18.70;99.90;;;;;;5032080;28;20253;-79
2022/08/16 03:15:13;;;;;;;0.73;0.73;;;18.40;99.90;;;;;;5031381;28;20213;-80
2022/08/16 03:17:39;;;;;;;1.30;0.63;;;18.30;99.90;;;;;;5029916;28;20241;-80
2022/08/16 03:20:07;;;;;;;0.30;0.30;;;18.20;99.90;;;;;;5033805;28;20177;-80
2022/08/16 03:22:33;;;;;;;0.87;0.40;;;18.10;99.90;;;;;;5038238;28;20258;-80
2022/08/16 03:25:00;;;;;;;1.57;0.40;;;18.10;99.90;;;;;;5027783;28;20265;-80
2022/08/16 03:27:27;;;;;;;0.70;0.70;;;18.30;99.90;;;;;;5029839;28;20182;-79
2022/08/16 03:29:52;;;;;;;0.70;0.70;;;18.20;99.90;;;;;;5031380;28;20295;-79
2022/08/16 03:32:18;;;;;;;0.20;0.20;;;18.00;99.90;;;;;;5031708;28;20693;-80
2022/08/16 03:34:45;;;;;;;0.47;0.43;;;18.10;99.90;;;;;;5030963;28;20205;-80
2022/08/16 03:37:11;;;;;;;0.23;0.23;;;18.20;99.90;;;;;;5029133;28;20648;-80
2022/08/16 03:39:37;;;;;;;0.50;0.50;;;18.30;99.90;;;;;;5037270;28;20182;-80
2022/08/16 03:42:04;;;;;;;0.30;0.30;;;18.40;99.90;;;;;;5045341;28;21858;-80
2022/08/16 03:44:31;;;;;;;0.37;0.37;;;18.40;99.90;;;;;;5034721;28;20719;-80
2022/08/16 03:46:56;;;;;;;0.10;0.10;;;18.40;99.90;;;;;;5033356;28;20585;-80
2022/08/16 03:49:22;;;;;;;0.33;0.33;;;18.30;99.90;;;;;;5026114;28;20205;-80
2022/08/16 03:51:47;;;;;;;0.50;0.50;;;18.30;99.90;;;;;;5027359;28;20211;-80
2022/08/16 03:54:13;;;;;;;0.50;0.50;;;18.20;99.90;;;;;;5035957;28;20769;-80
2022/08/16 03:56:39;;;;;;;0.40;0.40;;;18.20;99.90;;;;;;5034140;28;20197;-80
2022/08/16 03:59:05;;;;;;;0.80;0.70;;;18.10;99.90;;;;;;5030396;28;20652;-80
2022/08/16 04:01:30;;;;;;;0.50;0.50;;;18.00;99.90;;;;;;5028206;28;20177;-79
2022/08/16 04:03:56;;;;;;;0.20;0.20;;;17.90;99.90;;;;;;5032524;28;20207;-79
2022/08/16 04:06:21;;;;;;;0.47;0.43;;;17.80;99.90;;;;;;5031454;28;20259;-79
2022/08/16 04:08:47;;;;;;;0.93;0.93;;;17.70;99.90;;;;;;5028007;28;20198;-79
2022/08/16 04:11:13;;;;;;;0.47;0.47;;;17.70;99.90;;;;;;5030539;28;21703;-80
2022/08/16 04:13:38;;;;;;;0.30;0.30;;;17.70;99.90;;;;;;5027888;28;20210;-80
2022/08/16 04:16:05;;;;;;;0.37;0.37;;;17.70;99.90;;;;;;5024885;28;20213;-80
2022/08/16 04:18:31;;;;;;;0.70;0.70;;;17.70;99.90;;;;;;5025158;28;20248;-80
2022/08/16 04:20:56;;;;;;;0.53;0.53;;;17.70;99.90;;;;;;5029819;28;20214;-80
2022/08/16 04:23:22;;;;;;;0.67;0.67;;;17.70;99.90;;;;;;5027537;28;20643;-80
2022/08/16 04:25:48;;;;;;;0.30;0.30;;;17.70;99.90;;;;;;5029542;28;20225;-80
2022/08/16 04:28:14;;;;;;;0.87;0.87;;;17.80;99.90;;;;;;5028403;28;20557;-80
2022/08/16 04:30:40;;;;;;;0.40;0.40;;;17.80;99.90;;;;;;5032373;28;20188;-80
2022/08/16 04:33:07;;;;;;;0.30;0.30;;;17.70;99.90;;;;;;5034037;28;20194;-80
2022/08/16 04:35:32;;;;;;;0.80;0.80;;;17.70;99.90;;;;;;5033119;28;20304;-80
2022/08/16 04:37:58;;;;;;;0.60;0.53;;;17.60;99.90;;;;;;5031835;28;20327;-80
2022/08/16 04:40:24;;;;;;;0.40;0.40;;;17.70;99.90;;;;;;5026410;28;20269;-80
2022/08/16 04:42:50;;;;;;;0.90;0.80;;;17.90;99.90;;;;;;5029900;28;20184;-80
2022/08/16 04:45:17;;;;;;;0.33;0.33;;;17.90;99.90;;;;;;5035021;28;20671;-80
2022/08/16 04:47:43;;;;;;;1.00;0.90;;;17.90;99.90;;;;;;5025893;28;20199;-80
2022/08/16 04:50:17;;;;;;;0.40;0.40;;;17.80;99.90;;;;;;5034471;28;20193;-80
2022/08/16 04:52:46;;;;;;;0.23;0.23;;;17.80;99.90;;;;;;5030633;28;22161;-80
2022/08/16 04:55:16;;;;;;;0.47;0.47;;;18.10;99.90;;;;;;5030098;28;20439;-80
2022/08/16 04:57:42;;;;;;;0.63;0.63;;;18.10;99.90;;;;;;5027814;28;20177;-80
2022/08/16 05:00:13;;;;;;;0.37;0.37;;;18.10;99.90;;;;;;5030589;28;20227;-80
2022/08/16 05:02:39;;;;;;;0.40;0.40;;;18.10;99.90;;;;;;5036245;28;20203;-80
2022/08/16 05:05:05;;;;;;;0.30;0.30;;;18.30;99.90;;;;;;5031316;28;20214;-80
2022/08/16 05:07:30;;;;;;;2.63;0.87;;;18.30;99.90;;;;;;5038276;28;20233;-80
2022/08/16 05:09:56;;;;;;;0.67;0.67;;;18.30;99.90;;;;;;5030286;28;20225;-80
2022/08/16 05:12:21;;;;;;;0.60;0.60;;;18.30;99.90;;;;;;5024980;28;20197;-83
2022/08/16 05:14:47;;;;;;;0.97;0.97;;;18.40;99.90;;;;;;5032313;28;20213;-83
2022/08/16 05:17:13;;;;;;;0.47;0.40;;;18.50;99.90;;;;;;5032615;28;20193;-80
2022/08/16 05:19:38;;;;;;;0.40;0.40;;;18.70;99.90;;;;;;5030399;28;20190;-80
2022/08/16 05:22:04;;;;;;;0.67;0.50;;;18.90;99.90;;;;;;5034237;28;20187;-79
2022/08/16 05:24:29;;;;;;;0.73;0.73;;;18.80;99.90;;;;;;5047161;28;20189;-80
2022/08/16 05:26:55;;;;;;;0.70;0.63;;;18.60;99.90;;;;;;5041166;28;20191;-80
2022/08/16 05:29:20;;;;;;;1.20;0.50;;;18.70;99.90;;;;;;5041911;28;20193;-79
2022/08/16 05:31:46;;;;;;;0.83;0.83;;;18.70;99.90;;;;;;5042284;28;20226;-80
2022/08/16 05:34:12;;;;;;;0.60;0.60;;;18.70;99.90;;;;;;5042392;28;20569;-80
2022/08/16 05:36:37;;;;;;;0.90;0.90;;;18.70;99.90;;;;;;5034713;28;20201;-80
2022/08/16 05:39:05;;;;;;;0.60;0.60;;;18.70;99.90;;;;;;5030535;28;20197;-80
2022/08/16 05:41:31;;;;;;;0.40;0.40;;;18.90;99.90;;;;;;5030889;28;20214;-80
2022/08/16 05:43:59;;;;;;;0.97;0.57;;;19.20;99.90;;;;;;5027648;28;20191;-79
2022/08/16 05:46:25;;;;;;;0.60;0.60;;;19.30;99.90;;;;;;5025889;28;20707;-79
2022/08/16 05:48:51;;;;;;;0.30;0.30;;;19.20;99.90;;;;;;5030618;28;20202;-80
2022/08/16 05:51:18;;;;;;;2.03;0.80;;;19.20;99.90;;;;;;5027026;28;21726;-79
2022/08/16 05:53:44;;;;;;;0.93;0.77;;;19.10;99.90;;;;;;5034800;28;20601;-79
2022/08/16 05:56:10;;;;;;;4.97;0.80;;;19.30;99.90;;;;;;5036470;28;20282;-79
2022/08/16 05:58:36;;;;;;;0.50;0.30;;;19.30;99.90;;;;;;5037646;28;20266;-79
2022/08/16 06:01:03;;;;;;;0.87;0.73;;;19.70;99.90;;;;;;5038119;28;20275;-79
2022/08/16 06:03:28;;;;;;;0.70;0.43;;;19.80;99.90;;;;;;5038585;28;20189;-80
2022/08/16 06:05:54;;;;;;;0.70;0.63;;;19.70;99.90;;;;;;5036983;28;20347;-79
2022/08/16 06:08:19;;;;;;;0.60;0.57;;;19.70;99.90;;;;;;5041296;28;20591;-80
2022/08/16 06:10:45;;;;;;;0.30;0.30;;;20.20;99.90;;;;;;5031593;28;20613;-80
2022/08/16 06:13:10;;;;;;;0.40;0.40;;;20.50;99.90;;;;;;5034022;28;20177;-79
2022/08/16 06:15:36;;;;;;;0.50;0.50;;;20.80;99.90;;;;;;5032188;28;20487;-79
2022/08/16 06:18:01;;;;;;;0.40;0.40;;;21.00;99.90;;;;;;5038767;28;20214;-79
2022/08/16 06:20:28;;;;;;;1.03;0.90;;;21.20;99.90;;;;;;5036290;28;20320;-79
2022/08/16 06:22:55;;;;;;;0.83;0.67;;;21.40;99.90;;;;;;5031023;28;20183;-80
2022/08/16 06:25:22;;;;;;;0.60;0.60;;;21.50;99.90;;;;;;5027516;28;20206;-81
2022/08/16 06:27:48;;;;;;;0.77;0.70;;;21.60;99.90;;;;;;5031522;28;20175;-80
2022/08/16 06:30:14;;;;;;;0.60;0.60;;;21.70;99.90;;;;;;5037467;28;20178;-80
2022/08/16 06:32:40;;;;;;;0.70;0.70;;;21.80;99.90;;;;;;5034208;28;20186;-79
2022/08/16 06:35:06;;;;;;;0.50;0.50;;;21.80;99.90;;;;;;5033838;28;20580;-79
2022/08/16 06:37:32;;;;;;;0.93;0.43;;;21.80;99.90;;;;;;5031086;28;20724;-80
2022/08/16 06:39:57;;;;;;;0.60;0.60;;;21.80;99.90;;;;;;5026505;28;20270;-80
2022/08/16 06:42:23;;;;;;;0.37;0.37;;;21.70;99.90;;;;;;5034407;28;20214;-80
2022/08/16 06:44:49;;;;;;;0.70;0.60;;;21.90;99.90;;;;;;5025951;28;20214;-80
2022/08/16 06:47:15;;;;;;;0.60;0.60;;;21.90;99.90;;;;;;5033450;28;20207;-80
2022/08/16 06:49:41;;;;;;;0.27;0.27;;;22.00;99.90;;;;;;5022333;28;20198;-82
2022/08/16 06:52:07;;;;;;;0.50;0.50;;;22.30;99.90;;;;;;5027746;28;20230;-80
2022/08/16 06:54:33;;;;;;;0.70;0.70;;;22.40;99.90;;;;;;5029435;28;20202;-80
2022/08/16 06:56:59;;;;;;;0.53;0.50;;;22.70;99.90;;;;;;5034891;28;20177;-80
2022/08/16 06:59:25;;;;;;;0.57;0.57;;;22.70;99.90;;;;;;5038495;28;20182;-80
2022/08/16 07:01:50;;;;;;;1.50;0.90;;;22.90;99.90;;;;;;5041224;28;20181;-80
2022/08/16 07:04:17;;;;;;;1.33;0.90;;;23.00;99.90;;;;;;5041042;28;20183;-79
2022/08/16 07:06:42;;;;;;;0.90;0.90;;;22.90;99.90;;;;;;5047875;28;20197;-81
2022/08/16 07:09:10;;;;;;;0.40;0.40;;;22.90;99.90;;;;;;5041165;28;20181;-78
2022/08/16 07:11:35;;;;;;;0.50;0.50;;;23.00;99.90;;;;;;5036608;28;20183;-79
2022/08/16 07:14:01;;;;;;;0.63;0.63;;;22.90;99.90;;;;;;5049399;28;20219;-79
2022/08/16 07:16:26;;;;;;;0.50;0.50;;;22.90;99.90;;;;;;5032488;28;20230;-79
2022/08/16 07:18:52;;;;;;;0.67;0.40;;;23.00;99.90;;;;;;5046605;28;20179;-79
2022/08/16 07:21:17;;;;;;;0.53;0.53;;;23.10;99.90;;;;;;5046740;28;20182;-79
2022/08/16 07:23:45;;;;;;;0.77;0.60;;;23.20;99.90;;;;;;5046540;28;20221;-79
2022/08/16 07:26:18;;;;;;;0.60;0.57;;;23.30;99.90;;;;;;5045641;28;20228;-79
2022/08/16 07:28:43;;;;;;;0.70;0.60;;;23.50;99.90;;;;;;5042983;28;20190;-79
2022/08/16 07:31:09;;;;;;;0.50;0.50;;;23.60;99.90;;;;;;5026741;28;20173;-79
2022/08/16 07:33:36;;;;;;;0.30;0.30;;;23.70;99.90;;;;;;5046539;28;20178;-79
2022/08/16 07:36:03;;;;;;;0.63;0.63;;;23.80;99.90;;;;;;5042785;28;20198;-79
2022/08/16 07:38:29;;;;;;;0.70;0.70;;;23.80;99.90;;;;;;5036762;28;20174;-79
2022/08/16 07:40:56;;;;;;;0.60;0.60;;;24.00;99.90;;;;;;5046288;28;20247;-79
2022/08/16 07:43:23;;;;;;;0.37;0.37;;;24.10;99.90;;;;;;5040111;28;20183;-79
2022/08/16 07:45:49;;;;;;;0.43;0.43;;;24.30;99.90;;;;;;5039877;28;20607;-79
2022/08/16 07:48:15;;;;;;;0.50;0.50;;;24.40;99.90;;;;;;5047014;28;20292;-79
2022/08/16 07:50:41;;;;;;;0.70;0.70;;;24.50;99.90;;;;;;5042104;28;20184;-79
2022/08/16 07:53:08;;;;;;;0.50;0.50;;;24.60;99.90;;;;;;5038420;28;20236;-79
2022/08/16 07:55:33;;;;;;;0.50;0.50;;;24.70;99.90;;;;;;5038541;28;20241;-79
2022/08/16 07:58:00;;;;;;;0.70;0.70;;;24.80;99.90;;;;;;5028481;28;20690;-79
2022/08/16 08:00:25;;;;;;;0.87;0.80;;;24.80;99.90;;;;;;5029889;28;20265;-79
2022/08/16 08:02:52;;;;;;;0.63;0.63;;;24.80;99.90;;;;;;5033963;28;20190;-79
2022/08/16 08:05:18;;;;;;;0.67;0.67;;;24.80;99.90;;;;;;5041672;28;20229;-79
2022/08/16 08:07:43;;;;;;;0.60;0.60;;;24.70;99.90;;;;;;5037147;28;20186;-79
2022/08/16 08:10:09;;;;;;;0.40;0.40;;;25.00;99.90;;;;;;5027538;28;20565;-79
2022/08/16 08:12:35;;;;;;;0.53;0.53;;;25.30;99.90;;;;;;5032171;28;20186;-79
2022/08/16 08:15:02;;;;;;;0.63;0.63;;;25.40;99.90;;;;;;5035570;28;20218;-82
2022/08/16 08:17:28;;;;;;;0.67;0.67;;;25.20;99.90;;;;;;5027962;28;20174;-79
2022/08/16 08:19:54;;;;;;;1.90;1.20;;;25.30;99.90;;;;;;5013917;28;20190;-79
2022/08/16 08:22:21;;;;;;;1.83;1.30;;;24.70;99.90;;;;;;5027315;28;20182;-79
2022/08/16 08:24:46;;;;;;;0.50;0.50;;;24.30;99.90;;;;;;5026015;28;20345;-79
2022/08/16 08:27:13;;;;;;;0.67;0.60;;;24.80;99.90;;;;;;5021652;28;20178;-79
2022/08/16 08:29:39;;;;;;;0.53;0.50;;;25.20;99.90;;;;;;5033084;28;20679;-79
2022/08/16 08:32:06;;;;;;;1.10;0.87;;;25.30;99.90;;;;;;5034015;28;20182;-80
2022/08/16 08:34:32;;;;;;;0.60;0.60;;;25.20;99.90;;;;;;5035629;28;20198;-80
2022/08/16 08:36:58;;;;;;;0.90;0.90;;;25.10;99.90;;;;;;5028174;28;20181;-79
2022/08/16 08:39:24;;;;;;;0.80;0.77;;;25.50;99.90;;;;;;5025434;28;20187;-79
2022/08/16 08:41:51;;;;;;;1.40;0.90;;;25.70;99.90;;;;;;5028809;28;20188;-79
2022/08/16 08:44:16;;;;;;;0.30;0.30;;;26.00;99.90;;;;;;5035695;28;20231;-79
2022/08/16 08:46:42;;;;;;;0.50;0.50;;;26.30;99.90;;;;;;5032570;28;20213;-79
2022/08/16 08:49:07;;;;;;;0.87;0.80;;;26.50;99.90;;;;;;5028789;28;20608;-79
2022/08/16 08:51:34;;;;;;;0.93;0.60;;;26.50;99.90;;;;;;5029426;28;20233;-80
2022/08/16 08:54:02;;;;;;;0.50;0.50;;;26.40;99.90;;;;;;5031249;28;20669;-80
2022/08/16 08:56:32;;;;;;;0.80;0.50;;;26.40;99.90;;;;;;5029868;28;20228;-80
2022/08/16 08:58:58;;;;;;;2.93;0.80;;;26.40;99.90;;;;;;5028019;28;20649;-80
2022/08/16 09:01:32;;;;;;;0.87;0.83;;;26.30;99.90;;;;;;5029517;28;20730;-80
2022/08/16 09:03:58;;;;;;;0.97;0.90;;;26.40;99.90;;;;;;5030999;28;20197;-80
2022/08/16 09:06:24;;;;;;;1.17;1.13;;;26.80;99.90;;;;;;5024699;28;20214;-80
2022/08/16 09:08:50;;;;;;;0.90;0.73;;;26.30;99.90;;;;;;5024566;28;20208;-80
2022/08/16 09:11:16;;;;;;;0.67;0.67;;;26.60;99.90;;;;;;5026815;28;20180;-80
2022/08/16 09:13:43;;;;;;;0.40;0.40;;;27.10;99.90;;;;;;5023386;28;20190;-80
2022/08/16 09:16:08;;;;;;;1.87;0.67;;;27.50;99.90;;;;;;5028653;28;20202;-80
2022/08/16 09:18:34;;;;;;;0.73;0.73;;;27.70;99.90;;;;;;5028501;28;20265;-80
2022/08/16 09:20:59;;;;;;;0.80;0.80;;;27.70;99.90;;;;;;5026144;28;20178;-80
2022/08/16 09:23:26;;;;;;;0.80;0.50;;;28.00;99.90;;;;;;5029685;28;20778;-80
2022/08/16 09:25:51;;;;;;;0.50;0.50;;;28.10;99.90;;;;;;5033627;28;20806;-80
2022/08/16 09:28:17;;;;;;;0.73;0.73;;;28.20;99.90;;;;;;5028598;28;20213;-80
2022/08/16 09:30:43;;;;;;;1.70;1.07;;;28.70;99.90;;;;;;5033848;28;20178;-80
2022/08/16 09:33:09;;;;;;;0.60;0.47;;;28.70;99.90;;;;;;5034331;28;20541;-80
2022/08/16 09:35:36;;;;;;;0.60;0.60;;;29.00;99.90;;;;;;5030954;28;20210;-80
2022/08/16 09:38:03;;;;;;;1.50;1.03;;;28.80;99.90;;;;;;5029789;28;20214;-80
2022/08/16 09:40:29;;;;;;;0.70;0.70;;;28.90;99.90;;;;;;5031424;28;20185;-80
2022/08/16 09:42:57;;;;;;;0.90;0.90;;;28.90;99.90;;;;;;5032161;28;20170;-80
2022/08/16 09:45:26;;;;;;;1.48;1.02;;;28.50;99.90;;;;;;5033683;28;20289;-80
2022/08/16 09:47:53;;;;;;;0.98;0.55;;;28.50;99.90;;;;;;5033643;28;20205;-80
2022/08/16 09:50:20;;;;;;;1.58;1.08;;;28.20;99.90;;;;;;5034174;28;20190;-80
2022/08/16 09:52:46;;;;;;;0.77;0.75;;;28.20;99.90;;;;;;5032631;28;20174;-80
2022/08/16 09:55:12;;;;;;;1.15;0.85;;;28.40;99.90;;;;;;5035148;28;20236;-80
2022/08/16 09:57:40;;;;;;;0.55;0.50;;;28.30;99.90;;;;;;5032606;28;20186;-81
2022/08/16 10:00:10;;;;;;;1.13;0.70;;;28.40;99.90;;;;;;5034062;28;20565;-80
2022/08/16 10:02:36;;;;;;;1.05;1.00;;;28.10;99.90;;;;;;5035525;28;20189;-80
2022/08/16 10:05:03;;;;;;;0.82;0.82;;;28.20;99.90;;;;;;5034954;28;20210;-80
2022/08/16 10:07:30;;;;;;;0.77;0.63;;;28.80;99.90;;;;;;5031028;28;20183;-80
2022/08/16 10:09:56;;;;;;;0.60;0.60;;;29.30;99.90;;;;;;5031596;28;20652;-80
2022/08/16 10:15:12;;;;;;;0.85;0.50;;;29.10;99.90;;;;;;5034099;28;20584;-80
2022/08/16 10:17:41;;;;;;;0.98;0.93;;;29.20;99.90;;;;;;5033879;28;20546;-80
2022/08/16 10:20:10;;;;;;;1.02;0.70;;;28.80;99.90;;;;;;5033542;28;20250;-80
2022/08/16 10:22:39;;;;;;;1.25;1.15;;;29.10;99.90;;;;;;5035612;28;20303;-80
2022/08/16 10:25:06;;;;;;;0.93;0.73;;;29.10;99.90;;;;;;5031515;28;20203;-80
2022/08/16 10:27:33;;;;;;;0.50;0.50;;;29.10;99.90;;;;;;5034494;28;20181;-80
2022/08/16 10:29:59;;;;;;;0.68;0.68;;;29.10;99.90;;;;;;5035277;28;20217;-80
2022/08/16 10:32:25;;;;;;;0.82;0.73;;;28.80;99.90;;;;;;5032775;28;20183;-79
2022/08/16 10:34:50;;;;;;;0.60;0.60;;;28.80;99.90;;;;;;5032314;28;20278;-80
2022/08/16 10:37:16;;;;;;;1.02;0.93;;;29.00;99.90;;;;;;5032868;28;20186;-80
2022/08/16 10:39:42;;;;;;;0.70;0.70;;;29.40;99.90;;;;;;5037985;28;20237;-80
2022/08/16 10:42:08;;;;;;;0.47;0.47;;;29.50;99.90;;;;;;5033298;28;20215;-80
2022/08/16 10:44:34;;;;;;;0.80;0.80;;;29.20;99.90;;;;;;5028993;28;20193;-80
2022/08/16 10:46:59;;;;;;;0.43;0.43;;;29.00;99.90;;;;;;5032209;28;20182;-80
2022/08/16 10:49:25;;;;;;;0.68;0.60;;;28.90;99.90;;;;;;5033125;28;20230;-80
2022/08/16 10:51:54;;;;;;;0.47;0.47;;;29.40;99.90;;;;;;5027751;28;20254;-80
2022/08/16 10:54:20;;;;;;;0.70;0.70;;;29.50;99.90;;;;;;5034037;28;20205;-80
2022/08/16 10:56:46;;;;;;;0.82;0.80;;;29.00;99.90;;;;;;5041754;28;20202;-80
2022/08/16 10:59:11;;;;;;;1.17;0.63;;;28.20;99.90;;;;;;5026878;28;20182;-80
2022/08/16 11:01:37;;;;;;;0.57;0.57;;;28.60;99.90;;;;;;5030004;28;20228;-80
2022/08/16 11:04:03;;;;;;;0.47;0.47;;;28.70;99.90;;;;;;5028884;28;20183;-79
2022/08/16 11:06:28;;;;;;;1.38;1.20;;;29.20;99.90;;;;;;5026909;28;20218;-80
2022/08/16 11:08:55;;;;;;;1.92;1.83;;;29.40;99.90;;;;;;5030352;28;20250;-80
2022/08/16 11:11:21;;;;;;;1.40;0.70;;;29.60;99.90;;;;;;5034774;28;20273;-80
2022/08/16 11:13:48;;;;;;;1.13;1.08;;;29.60;99.90;;;;;;5034193;28;20806;-80
2022/08/16 11:16:14;;;;;;;0.75;0.70;;;29.80;99.90;;;;;;5036126;28;20194;-80
2022/08/16 11:18:40;;;;;;;1.08;0.75;;;29.90;99.90;;;;;;5032557;28;20185;-80
2022/08/16 11:21:06;;;;;;;0.50;0.50;;;30.10;99.90;;;;;;5033193;28;20182;-80
2022/08/16 11:23:31;;;;;;;1.20;1.15;;;30.40;99.90;;;;;;5028232;28;20182;-80
2022/08/16 11:25:57;;;;;;;1.40;0.73;;;30.10;99.90;;;;;;5026210;28;20210;-80
2022/08/16 11:28:23;;;;;;;0.60;0.60;;;30.20;99.90;;;;;;5026852;28;20187;-80
2022/08/16 11:30:49;;;;;;;0.55;0.50;;;30.20;99.90;;;;;;5032572;28;20194;-80
2022/08/16 11:33:14;;;;;;;0.85;0.85;;;30.40;99.90;;;;;;5029257;28;20191;-79
2022/08/16 11:35:40;;;;;;;0.98;0.85;;;30.60;99.90;;;;;;5027008;28;20219;-80
2022/08/16 11:38:16;;;;;;;0.80;0.80;;;29.60;99.90;;;;;;5033538;28;20183;-80
2022/08/16 11:41:02;;;;;;;0.60;0.60;;;30.10;99.90;;;;;;5031240;28;20201;-83
2022/08/16 11:43:34;;;;;;;0.38;0.38;;;30.20;99.90;;;;;;5028779;28;20183;-80
2022/08/16 11:46:03;;;;;;;0.30;0.30;;;30.10;99.90;;;;;;5033424;28;20210;-80
2022/08/16 11:48:32;;;;;;;0.52;0.50;;;30.40;99.90;;;;;;5033428;28;20194;-80
2022/08/16 11:50:59;;;;;;;0.30;0.30;;;30.30;99.90;;;;;;5034065;28;20181;-80
2022/08/16 11:53:27;;;;;;;0.57;0.45;;;30.50;99.90;;;;;;5037393;28;20185;-80
2022/08/16 11:55:53;;;;;;;0.80;0.80;;;30.70;99.90;;;;;;5033745;28;20771;-80
2022/08/16 11:58:20;;;;;;;0.40;0.40;;;29.90;99.90;;;;;;5032324;28;20237;-80
2022/08/16 12:00:47;;;;;;;0.80;0.80;;;29.80;99.90;;;;;;5024415;28;20186;-80
2022/08/16 12:03:13;;;;;;;0.40;0.40;;;30.40;99.90;;;;;;5029040;28;20198;-80
2022/08/16 12:05:41;;;;;;;1.42;0.70;;;30.90;99.90;;;;;;5041061;28;20218;-80
2022/08/16 12:08:08;;;;;;;0.60;0.60;;;31.00;99.90;;;;;;5031655;28;20183;-80
2022/08/16 12:10:36;;;;;;;0.52;0.52;;;31.40;99.90;;;;;;5023886;28;20219;-81
2022/08/16 12:13:02;;;;;;;0.65;0.65;;;31.40;99.90;;;;;;5024087;28;20189;-79
2022/08/16 12:15:27;;;;;;;0.90;0.90;;;31.40;99.90;;;;;;5033175;28;20214;-79
2022/08/16 12:17:54;;;;;;;0.65;0.65;;;31.60;99.90;;;;;;5043340;28;20241;-79
2022/08/16 12:20:25;;;;;;;0.50;0.50;;;31.30;99.90;;;;;;5034281;28;20191;-80
2022/08/16 12:22:52;;;;;;;0.50;0.50;;;31.20;99.90;;;;;;5028491;28;20215;-80
2022/08/16 12:25:20;;;;;;;0.93;0.80;;;31.60;99.90;;;;;;5038744;28;20202;-80
2022/08/16 12:27:47;;;;;;;0.50;0.50;;;31.80;99.90;;;;;;5032947;28;20678;-80
2022/08/16 12:30:16;;;;;;;0.70;0.70;;;31.90;99.90;;;;;;5034070;28;20284;-80
2022/08/16 12:32:42;;;;;;;1.10;0.93;;;31.40;99.90;;;;;;5028006;28;20174;-80
2022/08/16 12:35:11;;;;;;;1.15;1.15;;;31.80;99.90;;;;;;5033563;28;20218;-80
2022/08/16 12:37:37;;;;;;;0.65;0.63;;;32.00;99.90;;;;;;5032829;28;20532;-80
2022/08/16 12:40:06;;;;;;;0.82;0.80;;;32.00;99.90;;;;;;5028082;28;20189;-80
2022/08/16 12:42:33;;;;;;;0.60;0.60;;;31.80;99.90;;;;;;5022240;28;20210;-81
2022/08/16 12:44:59;;;;;;;0.90;0.85;;;31.40;99.90;;;;;;5020192;28;20207;-81
2022/08/16 12:50:09;;;;;;;0.60;0.60;;;32.10;99.90;;;;;;5029523;28;20674;-81
2022/08/16 12:52:34;;;;;;;0.77;0.77;;;32.00;99.90;;;;;;5030031;28;20210;-81